sensor_id;sensor_type;location;lat;lon;timestamp;P1;durP1;ratioP1;P2;durP2;ratioP2
21326;SDS011;10822;51.532;6.770;2023-03-02T00:02:02;8.07;;;4.47;;
21326;SDS011;10822;51.532;6.770;2023-03-02T00:04:35;7.82;;;4.57;;
21326;SDS011;10822;51.532;6.770;2023-03-02T00:07:06;7.53;;;5.25;;
21326;SDS011;10822;51.532;6.770;2023-03-02T00:09:33;7.88;;;4.70;;
21326;SDS011;10822;51.532;6.770;2023-03-02T00:11:59;7.55;;;4.55;;
21326;SDS011;10822;51.532;6.770;2023-03-02T00:14:25;7.55;;;4.70;;
21326;SDS011;10822;51.532;6.770;2023-03-02T00:16:51;7.07;;;4.50;;
21326;SDS011;10822;51.532;6.770;2023-03-02T00:19:17;8.77;;;4.53;;
21326;SDS011;10822;51.532;6.770;2023-03-02T00:21:43;7.25;;;4.55;;
21326;SDS011;10822;51.532;6.770;2023-03-02T00:24:09;7.35;;;4.43;;
21326;SDS011;10822;51.532;6.770;2023-03-02T00:26:35;6.80;;;4.18;;
21326;SDS011;10822;51.532;6.770;2023-03-02T00:29:01;6.88;;;4.35;;
21326;SDS011;10822;51.532;6.770;2023-03-02T00:31:27;8.15;;;4.65;;
21326;SDS011;10822;51.532;6.770;2023-03-02T00:33:53;7.45;;;4.45;;
21326;SDS011;10822;51.532;6.770;2023-03-02T00:36:20;9.35;;;4.82;;
21326;SDS011;10822;51.532;6.770;2023-03-02T00:38:46;8.95;;;4.72;;
21326;SDS011;10822;51.532;6.770;2023-03-02T00:41:13;9.77;;;4.75;;
21326;SDS011;10822;51.532;6.770;2023-03-02T00:43:39;7.93;;;4.75;;
21326;SDS011;10822;51.532;6.770;2023-03-02T00:46:12;9.00;;;4.75;;
21326;SDS011;10822;51.532;6.770;2023-03-02T00:48:38;8.10;;;4.55;;
21326;SDS011;10822;51.532;6.770;2023-03-02T00:51:05;9.50;;;5.45;;
21326;SDS011;10822;51.532;6.770;2023-03-02T00:53:32;8.77;;;5.10;;
21326;SDS011;10822;51.532;6.770;2023-03-02T00:55:58;8.82;;;5.00;;
21326;SDS011;10822;51.532;6.770;2023-03-02T00:58:25;8.70;;;5.22;;
21326;SDS011;10822;51.532;6.770;2023-03-02T01:00:51;9.15;;;4.63;;
21326;SDS011;10822;51.532;6.770;2023-03-02T01:03:18;8.68;;;5.22;;
21326;SDS011;10822;51.532;6.770;2023-03-02T01:05:44;8.73;;;4.53;;
21326;SDS011;10822;51.532;6.770;2023-03-02T01:08:10;10.13;;;5.28;;
21326;SDS011;10822;51.532;6.770;2023-03-02T01:10:36;9.52;;;4.63;;
21326;SDS011;10822;51.532;6.770;2023-03-02T01:13:02;9.63;;;4.82;;
21326;SDS011;10822;51.532;6.770;2023-03-02T01:15:29;8.65;;;5.68;;
21326;SDS011;10822;51.532;6.770;2023-03-02T01:17:57;10.27;;;5.20;;
21326;SDS011;10822;51.532;6.770;2023-03-02T01:20:23;8.77;;;5.15;;
21326;SDS011;10822;51.532;6.770;2023-03-02T01:22:49;7.85;;;4.97;;
21326;SDS011;10822;51.532;6.770;2023-03-02T01:25:15;8.05;;;5.45;;
21326;SDS011;10822;51.532;6.770;2023-03-02T01:27:41;9.55;;;5.50;;
21326;SDS011;10822;51.532;6.770;2023-03-02T01:30:07;9.93;;;4.97;;
21326;SDS011;10822;51.532;6.770;2023-03-02T01:32:33;9.02;;;5.07;;
21326;SDS011;10822;51.532;6.770;2023-03-02T01:34:59;9.38;;;4.57;;
21326;SDS011;10822;51.532;6.770;2023-03-02T01:37:25;9.43;;;5.10;;
21326;SDS011;10822;51.532;6.770;2023-03-02T01:39:51;7.53;;;4.65;;
21326;SDS011;10822;51.532;6.770;2023-03-02T01:42:17;9.75;;;5.30;;
21326;SDS011;10822;51.532;6.770;2023-03-02T01:44:47;7.95;;;5.00;;
21326;SDS011;10822;51.532;6.770;2023-03-02T01:49:45;9.80;;;4.80;;
21326;SDS011;10822;51.532;6.770;2023-03-02T01:52:12;8.57;;;4.43;;
21326;SDS011;10822;51.532;6.770;2023-03-02T01:54:39;10.45;;;5.30;;
21326;SDS011;10822;51.532;6.770;2023-03-02T01:57:06;10.40;;;5.28;;
21326;SDS011;10822;51.532;6.770;2023-03-02T01:59:32;8.38;;;4.68;;
21326;SDS011;10822;51.532;6.770;2023-03-02T02:02:06;8.77;;;5.28;;
21326;SDS011;10822;51.532;6.770;2023-03-02T02:04:33;10.02;;;5.85;;
21326;SDS011;10822;51.532;6.770;2023-03-02T02:07:02;9.98;;;5.53;;
21326;SDS011;10822;51.532;6.770;2023-03-02T02:09:29;7.50;;;5.07;;
21326;SDS011;10822;51.532;6.770;2023-03-02T02:11:56;7.57;;;4.70;;
21326;SDS011;10822;51.532;6.770;2023-03-02T02:14:22;8.52;;;4.43;;
21326;SDS011;10822;51.532;6.770;2023-03-02T02:16:48;8.95;;;5.32;;
21326;SDS011;10822;51.532;6.770;2023-03-02T02:21:56;8.18;;;4.90;;
21326;SDS011;10822;51.532;6.770;2023-03-02T02:24:31;8.43;;;4.85;;
21326;SDS011;10822;51.532;6.770;2023-03-02T02:26:58;8.90;;;5.03;;
21326;SDS011;10822;51.532;6.770;2023-03-02T02:29:33;7.97;;;4.95;;
21326;SDS011;10822;51.532;6.770;2023-03-02T02:34:35;9.13;;;5.80;;
21326;SDS011;10822;51.532;6.770;2023-03-02T02:37:05;9.60;;;5.32;;
21326;SDS011;10822;51.532;6.770;2023-03-02T02:39:33;8.27;;;4.95;;
21326;SDS011;10822;51.532;6.770;2023-03-02T02:42:01;11.35;;;4.97;;
21326;SDS011;10822;51.532;6.770;2023-03-02T02:44:28;8.85;;;5.18;;
21326;SDS011;10822;51.532;6.770;2023-03-02T02:46:54;9.18;;;5.10;;
21326;SDS011;10822;51.532;6.770;2023-03-02T02:49:25;9.32;;;5.05;;
21326;SDS011;10822;51.532;6.770;2023-03-02T02:51:52;7.10;;;4.50;;
21326;SDS011;10822;51.532;6.770;2023-03-02T02:54:18;9.43;;;4.90;;
21326;SDS011;10822;51.532;6.770;2023-03-02T02:56:44;9.02;;;4.80;;
21326;SDS011;10822;51.532;6.770;2023-03-02T02:59:15;9.07;;;4.57;;
21326;SDS011;10822;51.532;6.770;2023-03-02T03:01:43;8.82;;;4.95;;
21326;SDS011;10822;51.532;6.770;2023-03-02T03:04:10;8.13;;;4.70;;
21326;SDS011;10822;51.532;6.770;2023-03-02T03:06:37;9.15;;;4.97;;
21326;SDS011;10822;51.532;6.770;2023-03-02T03:09:14;11.55;;;5.20;;
21326;SDS011;10822;51.532;6.770;2023-03-02T03:11:41;8.48;;;4.35;;
21326;SDS011;10822;51.532;6.770;2023-03-02T03:14:09;11.52;;;5.20;;
21326;SDS011;10822;51.532;6.770;2023-03-02T03:16:36;8.88;;;4.57;;
21326;SDS011;10822;51.532;6.770;2023-03-02T03:19:04;10.43;;;5.32;;
21326;SDS011;10822;51.532;6.770;2023-03-02T03:21:31;7.95;;;4.80;;
21326;SDS011;10822;51.532;6.770;2023-03-02T03:23:57;9.63;;;5.43;;
21326;SDS011;10822;51.532;6.770;2023-03-02T03:26:23;8.07;;;4.82;;
21326;SDS011;10822;51.532;6.770;2023-03-02T03:28:49;10.20;;;4.68;;
21326;SDS011;10822;51.532;6.770;2023-03-02T03:31:15;9.82;;;5.03;;
21326;SDS011;10822;51.532;6.770;2023-03-02T03:33:41;11.55;;;5.65;;
21326;SDS011;10822;51.532;6.770;2023-03-02T03:36:07;9.63;;;4.85;;
21326;SDS011;10822;51.532;6.770;2023-03-02T03:38:33;9.77;;;4.93;;
21326;SDS011;10822;51.532;6.770;2023-03-02T03:40:59;8.63;;;4.90;;
21326;SDS011;10822;51.532;6.770;2023-03-02T03:43:25;7.75;;;4.75;;
21326;SDS011;10822;51.532;6.770;2023-03-02T03:45:51;8.25;;;4.78;;
21326;SDS011;10822;51.532;6.770;2023-03-02T03:48:17;7.88;;;4.78;;
21326;SDS011;10822;51.532;6.770;2023-03-02T03:50:43;7.50;;;4.88;;
21326;SDS011;10822;51.532;6.770;2023-03-02T03:53:09;8.68;;;5.13;;
21326;SDS011;10822;51.532;6.770;2023-03-02T03:55:35;8.07;;;4.70;;
21326;SDS011;10822;51.532;6.770;2023-03-02T03:58:01;8.90;;;4.35;;
21326;SDS011;10822;51.532;6.770;2023-03-02T04:00:27;8.75;;;4.63;;
21326;SDS011;10822;51.532;6.770;2023-03-02T04:02:53;8.38;;;4.88;;
21326;SDS011;10822;51.532;6.770;2023-03-02T04:05:19;11.48;;;5.10;;
21326;SDS011;10822;51.532;6.770;2023-03-02T04:07:45;7.68;;;4.35;;
21326;SDS011;10822;51.532;6.770;2023-03-02T04:10:11;7.32;;;4.05;;
21326;SDS011;10822;51.532;6.770;2023-03-02T04:12:38;10.18;;;4.88;;
21326;SDS011;10822;51.532;6.770;2023-03-02T04:15:05;7.00;;;4.35;;
21326;SDS011;10822;51.532;6.770;2023-03-02T04:17:31;7.90;;;4.43;;
21326;SDS011;10822;51.532;6.770;2023-03-02T04:19:57;8.05;;;4.32;;
21326;SDS011;10822;51.532;6.770;2023-03-02T04:22:24;7.65;;;4.60;;
21326;SDS011;10822;51.532;6.770;2023-03-02T04:24:50;9.15;;;4.32;;
21326;SDS011;10822;51.532;6.770;2023-03-02T04:27:16;6.93;;;4.13;;
21326;SDS011;10822;51.532;6.770;2023-03-02T04:29:43;9.02;;;4.80;;
21326;SDS011;10822;51.532;6.770;2023-03-02T04:32:09;9.50;;;4.72;;
21326;SDS011;10822;51.532;6.770;2023-03-02T04:34:35;8.10;;;3.88;;
21326;SDS011;10822;51.532;6.770;2023-03-02T04:37:01;7.60;;;4.53;;
21326;SDS011;10822;51.532;6.770;2023-03-02T04:39:27;6.65;;;3.97;;
21326;SDS011;10822;51.532;6.770;2023-03-02T04:41:53;8.35;;;4.45;;
21326;SDS011;10822;51.532;6.770;2023-03-02T04:44:19;8.13;;;4.30;;
21326;SDS011;10822;51.532;6.770;2023-03-02T04:46:46;8.15;;;4.45;;
21326;SDS011;10822;51.532;6.770;2023-03-02T04:49:12;7.75;;;4.57;;
21326;SDS011;10822;51.532;6.770;2023-03-02T04:51:39;7.78;;;4.05;;
21326;SDS011;10822;51.532;6.770;2023-03-02T04:54:09;8.35;;;4.68;;
21326;SDS011;10822;51.532;6.770;2023-03-02T04:56:35;8.13;;;4.15;;
21326;SDS011;10822;51.532;6.770;2023-03-02T04:59:01;6.82;;;4.00;;
21326;SDS011;10822;51.532;6.770;2023-03-02T05:01:27;7.57;;;4.63;;
21326;SDS011;10822;51.532;6.770;2023-03-02T05:03:53;8.45;;;4.03;;
21326;SDS011;10822;51.532;6.770;2023-03-02T05:06:19;8.07;;;4.15;;
21326;SDS011;10822;51.532;6.770;2023-03-02T05:08:46;7.53;;;4.40;;
21326;SDS011;10822;51.532;6.770;2023-03-02T05:11:12;7.57;;;4.32;;
21326;SDS011;10822;51.532;6.770;2023-03-02T05:13:49;8.02;;;4.55;;
21326;SDS011;10822;51.532;6.770;2023-03-02T05:16:15;9.30;;;4.63;;
21326;SDS011;10822;51.532;6.770;2023-03-02T05:18:41;8.15;;;4.35;;
21326;SDS011;10822;51.532;6.770;2023-03-02T05:21:07;9.70;;;4.30;;
21326;SDS011;10822;51.532;6.770;2023-03-02T05:23:33;8.57;;;4.40;;
21326;SDS011;10822;51.532;6.770;2023-03-02T05:25:59;7.78;;;4.60;;
21326;SDS011;10822;51.532;6.770;2023-03-02T05:28:26;6.63;;;4.35;;
21326;SDS011;10822;51.532;6.770;2023-03-02T05:30:52;9.15;;;4.72;;
21326;SDS011;10822;51.532;6.770;2023-03-02T05:33:19;7.70;;;4.07;;
21326;SDS011;10822;51.532;6.770;2023-03-02T05:35:45;8.55;;;4.30;;
21326;SDS011;10822;51.532;6.770;2023-03-02T05:38:11;7.78;;;4.30;;
21326;SDS011;10822;51.532;6.770;2023-03-02T05:40:38;7.57;;;4.40;;
21326;SDS011;10822;51.532;6.770;2023-03-02T05:43:06;6.70;;;3.55;;
21326;SDS011;10822;51.532;6.770;2023-03-02T05:45:33;6.80;;;4.07;;
21326;SDS011;10822;51.532;6.770;2023-03-02T05:48:00;8.38;;;4.85;;
21326;SDS011;10822;51.532;6.770;2023-03-02T05:50:26;6.90;;;4.30;;
21326;SDS011;10822;51.532;6.770;2023-03-02T05:52:52;6.57;;;4.13;;
21326;SDS011;10822;51.532;6.770;2023-03-02T05:55:18;7.40;;;4.25;;
21326;SDS011;10822;51.532;6.770;2023-03-02T05:57:44;8.23;;;4.53;;
21326;SDS011;10822;51.532;6.770;2023-03-02T06:00:11;9.85;;;5.25;;
21326;SDS011;10822;51.532;6.770;2023-03-02T06:02:37;10.90;;;5.15;;
21326;SDS011;10822;51.532;6.770;2023-03-02T06:05:04;8.23;;;4.97;;
21326;SDS011;10822;51.532;6.770;2023-03-02T06:07:30;8.30;;;4.57;;
21326;SDS011;10822;51.532;6.770;2023-03-02T06:09:56;7.35;;;4.25;;
21326;SDS011;10822;51.532;6.770;2023-03-02T06:12:22;8.75;;;4.50;;
21326;SDS011;10822;51.532;6.770;2023-03-02T06:14:48;6.40;;;4.18;;
21326;SDS011;10822;51.532;6.770;2023-03-02T06:17:14;8.13;;;4.65;;
21326;SDS011;10822;51.532;6.770;2023-03-02T06:19:40;8.82;;;4.47;;
21326;SDS011;10822;51.532;6.770;2023-03-02T06:22:06;9.93;;;5.03;;
21326;SDS011;10822;51.532;6.770;2023-03-02T06:24:32;8.15;;;4.72;;
21326;SDS011;10822;51.532;6.770;2023-03-02T06:26:58;8.57;;;4.47;;
21326;SDS011;10822;51.532;6.770;2023-03-02T06:29:24;8.98;;;4.55;;
21326;SDS011;10822;51.532;6.770;2023-03-02T06:31:50;8.27;;;4.13;;
21326;SDS011;10822;51.532;6.770;2023-03-02T06:34:16;10.65;;;5.70;;
21326;SDS011;10822;51.532;6.770;2023-03-02T06:36:42;9.70;;;5.22;;
21326;SDS011;10822;51.532;6.770;2023-03-02T06:39:08;10.07;;;4.85;;
21326;SDS011;10822;51.532;6.770;2023-03-02T06:41:40;9.20;;;4.43;;
21326;SDS011;10822;51.532;6.770;2023-03-02T06:44:06;8.65;;;4.85;;
21326;SDS011;10822;51.532;6.770;2023-03-02T06:46:32;8.27;;;4.05;;
21326;SDS011;10822;51.532;6.770;2023-03-02T06:48:58;7.18;;;3.90;;
21326;SDS011;10822;51.532;6.770;2023-03-02T06:51:24;6.43;;;4.38;;
21326;SDS011;10822;51.532;6.770;2023-03-02T06:53:50;9.40;;;4.63;;
21326;SDS011;10822;51.532;6.770;2023-03-02T06:56:16;9.65;;;4.93;;
21326;SDS011;10822;51.532;6.770;2023-03-02T06:58:42;7.20;;;4.40;;
21326;SDS011;10822;51.532;6.770;2023-03-02T07:01:07;7.50;;;4.57;;
21326;SDS011;10822;51.532;6.770;2023-03-02T07:03:34;9.70;;;4.65;;
21326;SDS011;10822;51.532;6.770;2023-03-02T07:06:00;9.65;;;5.00;;
21326;SDS011;10822;51.532;6.770;2023-03-02T07:08:26;8.07;;;4.45;;
21326;SDS011;10822;51.532;6.770;2023-03-02T07:10:52;8.40;;;4.75;;
21326;SDS011;10822;51.532;6.770;2023-03-02T07:13:18;8.02;;;4.50;;
21326;SDS011;10822;51.532;6.770;2023-03-02T07:15:44;7.40;;;4.97;;
21326;SDS011;10822;51.532;6.770;2023-03-02T07:18:10;9.43;;;4.72;;
21326;SDS011;10822;51.532;6.770;2023-03-02T07:20:36;8.23;;;4.82;;
21326;SDS011;10822;51.532;6.770;2023-03-02T07:23:03;8.55;;;5.13;;
21326;SDS011;10822;51.532;6.770;2023-03-02T07:25:29;9.68;;;5.32;;
21326;SDS011;10822;51.532;6.770;2023-03-02T07:27:55;7.18;;;4.63;;
21326;SDS011;10822;51.532;6.770;2023-03-02T07:30:21;8.65;;;5.40;;
21326;SDS011;10822;51.532;6.770;2023-03-02T07:32:47;7.70;;;4.93;;
21326;SDS011;10822;51.532;6.770;2023-03-02T07:35:13;9.30;;;5.38;;
21326;SDS011;10822;51.532;6.770;2023-03-02T07:37:41;8.57;;;5.18;;
21326;SDS011;10822;51.532;6.770;2023-03-02T07:40:08;10.10;;;5.22;;
21326;SDS011;10822;51.532;6.770;2023-03-02T07:42:35;8.65;;;5.32;;
21326;SDS011;10822;51.532;6.770;2023-03-02T07:45:01;8.93;;;5.70;;
21326;SDS011;10822;51.532;6.770;2023-03-02T07:47:28;8.13;;;5.38;;
21326;SDS011;10822;51.532;6.770;2023-03-02T07:49:54;8.82;;;5.43;;
21326;SDS011;10822;51.532;6.770;2023-03-02T07:52:20;10.15;;;5.75;;
21326;SDS011;10822;51.532;6.770;2023-03-02T07:54:46;11.15;;;6.65;;
21326;SDS011;10822;51.532;6.770;2023-03-02T07:59:41;9.32;;;6.30;;
21326;SDS011;10822;51.532;6.770;2023-03-02T08:02:14;10.32;;;6.40;;
21326;SDS011;10822;51.532;6.770;2023-03-02T08:04:41;9.43;;;6.03;;
21326;SDS011;10822;51.532;6.770;2023-03-02T08:07:07;8.80;;;6.03;;
21326;SDS011;10822;51.532;6.770;2023-03-02T08:09:33;13.63;;;6.60;;
21326;SDS011;10822;51.532;6.770;2023-03-02T08:11:59;10.95;;;6.55;;
21326;SDS011;10822;51.532;6.770;2023-03-02T08:14:25;12.80;;;6.60;;
21326;SDS011;10822;51.532;6.770;2023-03-02T08:16:51;11.35;;;6.78;;
21326;SDS011;10822;51.532;6.770;2023-03-02T08:19:18;10.85;;;5.95;;
21326;SDS011;10822;51.532;6.770;2023-03-02T08:21:44;9.73;;;6.50;;
21326;SDS011;10822;51.532;6.770;2023-03-02T08:24:10;11.82;;;6.35;;
21326;SDS011;10822;51.532;6.770;2023-03-02T08:26:36;10.60;;;6.63;;
21326;SDS011;10822;51.532;6.770;2023-03-02T08:29:03;12.13;;;6.47;;
21326;SDS011;10822;51.532;6.770;2023-03-02T08:31:29;11.45;;;6.72;;
21326;SDS011;10822;51.532;6.770;2023-03-02T08:33:55;11.00;;;6.50;;
21326;SDS011;10822;51.532;6.770;2023-03-02T08:36:23;10.73;;;6.03;;
21326;SDS011;10822;51.532;6.770;2023-03-02T08:38:49;11.05;;;6.43;;
21326;SDS011;10822;51.532;6.770;2023-03-02T08:41:16;10.88;;;5.97;;
21326;SDS011;10822;51.532;6.770;2023-03-02T08:43:43;10.18;;;6.68;;
21326;SDS011;10822;51.532;6.770;2023-03-02T08:46:10;11.52;;;6.20;;
21326;SDS011;10822;51.532;6.770;2023-03-02T08:48:36;10.30;;;6.20;;
21326;SDS011;10822;51.532;6.770;2023-03-02T08:51:10;8.88;;;5.93;;
21326;SDS011;10822;51.532;6.770;2023-03-02T08:53:37;11.52;;;6.20;;
21326;SDS011;10822;51.532;6.770;2023-03-02T08:56:04;9.13;;;5.57;;
21326;SDS011;10822;51.532;6.770;2023-03-02T08:58:33;13.27;;;5.70;;
21326;SDS011;10822;51.532;6.770;2023-03-02T09:00:59;8.60;;;5.90;;
21326;SDS011;10822;51.532;6.770;2023-03-02T09:03:25;9.45;;;5.80;;
21326;SDS011;10822;51.532;6.770;2023-03-02T09:05:50;8.73;;;5.28;;
21326;SDS011;10822;51.532;6.770;2023-03-02T09:08:16;9.00;;;5.53;;
21326;SDS011;10822;51.532;6.770;2023-03-02T09:10:42;10.63;;;5.90;;
21326;SDS011;10822;51.532;6.770;2023-03-02T09:13:08;8.88;;;5.50;;
21326;SDS011;10822;51.532;6.770;2023-03-02T09:15:34;9.85;;;5.68;;
21326;SDS011;10822;51.532;6.770;2023-03-02T09:18:00;11.07;;;6.80;;
21326;SDS011;10822;51.532;6.770;2023-03-02T09:20:26;7.60;;;5.40;;
21326;SDS011;10822;51.532;6.770;2023-03-02T09:22:52;9.77;;;5.80;;
21326;SDS011;10822;51.532;6.770;2023-03-02T09:25:18;9.45;;;5.57;;
21326;SDS011;10822;51.532;6.770;2023-03-02T09:27:45;8.93;;;5.40;;
21326;SDS011;10822;51.532;6.770;2023-03-02T09:30:12;8.82;;;5.75;;
21326;SDS011;10822;51.532;6.770;2023-03-02T09:32:38;8.40;;;5.57;;
21326;SDS011;10822;51.532;6.770;2023-03-02T09:35:05;10.05;;;5.53;;
21326;SDS011;10822;51.532;6.770;2023-03-02T09:37:31;7.95;;;5.53;;
21326;SDS011;10822;51.532;6.770;2023-03-02T09:39:57;8.45;;;5.82;;
21326;SDS011;10822;51.532;6.770;2023-03-02T09:48:02;8.00;;;5.05;;
21326;SDS011;10822;51.532;6.770;2023-03-02T09:50:30;8.02;;;5.35;;
21326;SDS011;10822;51.532;6.770;2023-03-02T09:53:04;9.55;;;5.38;;
21326;SDS011;10822;51.532;6.770;2023-03-02T09:55:33;8.55;;;5.43;;
21326;SDS011;10822;51.532;6.770;2023-03-02T09:58:02;8.20;;;5.22;;
21326;SDS011;10822;51.532;6.770;2023-03-02T10:00:30;10.05;;;5.65;;
21326;SDS011;10822;51.532;6.770;2023-03-02T10:03:06;9.10;;;5.38;;
21326;SDS011;10822;51.532;6.770;2023-03-02T10:05:36;8.13;;;5.28;;
21326;SDS011;10822;51.532;6.770;2023-03-02T10:08:03;9.05;;;5.47;;
21326;SDS011;10822;51.532;6.770;2023-03-02T10:10:36;8.18;;;5.22;;
21326;SDS011;10822;51.532;6.770;2023-03-02T10:15:35;9.55;;;6.03;;
21326;SDS011;10822;51.532;6.770;2023-03-02T10:18:16;9.82;;;5.65;;
21326;SDS011;10822;51.532;6.770;2023-03-02T10:20:49;7.15;;;5.13;;
21326;SDS011;10822;51.532;6.770;2023-03-02T10:28:46;9.07;;;5.10;;
21326;SDS011;10822;51.532;6.770;2023-03-02T10:33:48;9.23;;;5.22;;
21326;SDS011;10822;51.532;6.770;2023-03-02T10:36:38;7.40;;;5.28;;
21326;SDS011;10822;51.532;6.770;2023-03-02T10:39:06;9.93;;;5.38;;
21326;SDS011;10822;51.532;6.770;2023-03-02T10:41:34;6.97;;;4.70;;
21326;SDS011;10822;51.532;6.770;2023-03-02T10:44:06;8.38;;;5.05;;
21326;SDS011;10822;51.532;6.770;2023-03-02T10:46:39;9.43;;;5.50;;
21326;SDS011;10822;51.532;6.770;2023-03-02T10:49:51;8.25;;;5.20;;
21326;SDS011;10822;51.532;6.770;2023-03-02T10:51:56;8.88;;;5.32;;
21326;SDS011;10822;51.532;6.770;2023-03-02T10:54:22;6.88;;;5.05;;
21326;SDS011;10822;51.532;6.770;2023-03-02T10:56:50;7.10;;;5.18;;
21326;SDS011;10822;51.532;6.770;2023-03-02T11:01:59;7.35;;;4.88;;
21326;SDS011;10822;51.532;6.770;2023-03-02T11:04:26;7.45;;;4.65;;
21326;SDS011;10822;51.532;6.770;2023-03-02T11:06:52;8.32;;;5.07;;
21326;SDS011;10822;51.532;6.770;2023-03-02T11:09:18;7.63;;;5.05;;
21326;SDS011;10822;51.532;6.770;2023-03-02T11:11:52;9.25;;;5.50;;
21326;SDS011;10822;51.532;6.770;2023-03-02T11:14:18;7.95;;;5.43;;
21326;SDS011;10822;51.532;6.770;2023-03-02T11:16:46;7.63;;;4.88;;
21326;SDS011;10822;51.532;6.770;2023-03-02T11:19:16;9.10;;;5.47;;
21326;SDS011;10822;51.532;6.770;2023-03-02T11:24:12;6.88;;;4.78;;
21326;SDS011;10822;51.532;6.770;2023-03-02T11:29:16;8.02;;;5.00;;
21326;SDS011;10822;51.532;6.770;2023-03-02T11:31:45;9.82;;;5.18;;
21326;SDS011;10822;51.532;6.770;2023-03-02T11:34:33;9.48;;;5.10;;
21326;SDS011;10822;51.532;6.770;2023-03-02T11:37:08;7.78;;;4.88;;
21326;SDS011;10822;51.532;6.770;2023-03-02T11:39:47;7.53;;;5.18;;
21326;SDS011;10822;51.532;6.770;2023-03-02T11:42:29;7.95;;;4.90;;
21326;SDS011;10822;51.532;6.770;2023-03-02T11:44:57;8.15;;;4.78;;
21326;SDS011;10822;51.532;6.770;2023-03-02T11:47:25;6.65;;;5.05;;
21326;SDS011;10822;51.532;6.770;2023-03-02T11:49:52;8.93;;;4.85;;
21326;SDS011;10822;51.532;6.770;2023-03-02T11:52:21;9.85;;;5.40;;
21326;SDS011;10822;51.532;6.770;2023-03-02T11:54:58;6.35;;;4.70;;
21326;SDS011;10822;51.532;6.770;2023-03-02T11:57:30;7.40;;;5.07;;
21326;SDS011;10822;51.532;6.770;2023-03-02T11:59:57;7.40;;;4.95;;
21326;SDS011;10822;51.532;6.770;2023-03-02T12:02:24;8.30;;;4.63;;
21326;SDS011;10822;51.532;6.770;2023-03-02T12:05:04;7.72;;;4.80;;
21326;SDS011;10822;51.532;6.770;2023-03-02T12:07:30;6.88;;;4.80;;
21326;SDS011;10822;51.532;6.770;2023-03-02T12:14:48;7.72;;;4.63;;
21326;SDS011;10822;51.532;6.770;2023-03-02T12:19:51;7.40;;;4.35;;
21326;SDS011;10822;51.532;6.770;2023-03-02T12:22:29;7.07;;;4.50;;
21326;SDS011;10822;51.532;6.770;2023-03-02T12:25:00;8.93;;;4.55;;
21326;SDS011;10822;51.532;6.770;2023-03-02T12:27:32;7.57;;;4.13;;
21326;SDS011;10822;51.532;6.770;2023-03-02T12:32:40;5.45;;;3.97;;
21326;SDS011;10822;51.532;6.770;2023-03-02T12:37:50;6.68;;;4.40;;
21326;SDS011;10822;51.532;6.770;2023-03-02T12:40:26;6.40;;;3.97;;
21326;SDS011;10822;51.532;6.770;2023-03-02T12:43:06;7.72;;;3.88;;
21326;SDS011;10822;51.532;6.770;2023-03-02T12:45:49;5.90;;;4.13;;
21326;SDS011;10822;51.532;6.770;2023-03-02T12:48:28;5.00;;;3.75;;
21326;SDS011;10822;51.532;6.770;2023-03-02T12:50:58;5.47;;;3.67;;
21326;SDS011;10822;51.532;6.770;2023-03-02T12:53:25;6.50;;;4.20;;
21326;SDS011;10822;51.532;6.770;2023-03-02T12:55:51;8.35;;;4.03;;
21326;SDS011;10822;51.532;6.770;2023-03-02T12:58:24;6.82;;;3.92;;
21326;SDS011;10822;51.532;6.770;2023-03-02T13:00:58;5.57;;;3.60;;
21326;SDS011;10822;51.532;6.770;2023-03-02T13:03:25;39.13;;;5.50;;
21326;SDS011;10822;51.532;6.770;2023-03-02T13:05:59;16.38;;;4.55;;
21326;SDS011;10822;51.532;6.770;2023-03-02T13:08:26;52.53;;;7.65;;
21326;SDS011;10822;51.532;6.770;2023-03-02T13:10:59;8.48;;;4.00;;
21326;SDS011;10822;51.532;6.770;2023-03-02T13:13:27;7.63;;;4.35;;
21326;SDS011;10822;51.532;6.770;2023-03-02T13:16:01;6.95;;;3.90;;
21326;SDS011;10822;51.532;6.770;2023-03-02T13:18:28;7.13;;;4.38;;
21326;SDS011;10822;51.532;6.770;2023-03-02T13:20:58;6.20;;;4.25;;
21326;SDS011;10822;51.532;6.770;2023-03-02T13:23:25;6.20;;;3.50;;
21326;SDS011;10822;51.532;6.770;2023-03-02T13:25:52;6.53;;;3.95;;
21326;SDS011;10822;51.532;6.770;2023-03-02T13:28:32;8.43;;;3.85;;
21326;SDS011;10822;51.532;6.770;2023-03-02T13:31:05;5.47;;;3.70;;
21326;SDS011;10822;51.532;6.770;2023-03-02T13:33:33;5.25;;;3.42;;
21326;SDS011;10822;51.532;6.770;2023-03-02T13:36:00;6.47;;;4.10;;
21326;SDS011;10822;51.532;6.770;2023-03-02T13:38:30;6.32;;;3.85;;
21326;SDS011;10822;51.532;6.770;2023-03-02T13:40:57;5.95;;;3.90;;
21326;SDS011;10822;51.532;6.770;2023-03-02T13:45:59;5.82;;;4.00;;
21326;SDS011;10822;51.532;6.770;2023-03-02T13:48:25;5.90;;;4.28;;
21326;SDS011;10822;51.532;6.770;2023-03-02T13:50:56;5.00;;;3.50;;
21326;SDS011;10822;51.532;6.770;2023-03-02T13:53:22;5.80;;;3.60;;
21326;SDS011;10822;51.532;6.770;2023-03-02T13:55:49;5.53;;;3.80;;
21326;SDS011;10822;51.532;6.770;2023-03-02T13:58:17;5.63;;;3.60;;
21326;SDS011;10822;51.532;6.770;2023-03-02T14:00:44;4.93;;;3.50;;
21326;SDS011;10822;51.532;6.770;2023-03-02T14:03:20;5.60;;;3.95;;
21326;SDS011;10822;51.532;6.770;2023-03-02T14:05:46;5.65;;;3.90;;
21326;SDS011;10822;51.532;6.770;2023-03-02T14:08:12;6.07;;;3.85;;
21326;SDS011;10822;51.532;6.770;2023-03-02T14:10:38;6.75;;;3.78;;
21326;SDS011;10822;51.532;6.770;2023-03-02T14:13:05;7.60;;;4.25;;
21326;SDS011;10822;51.532;6.770;2023-03-02T14:15:33;5.97;;;4.20;;
21326;SDS011;10822;51.532;6.770;2023-03-02T14:17:59;5.97;;;4.03;;
21326;SDS011;10822;51.532;6.770;2023-03-02T14:20:25;5.15;;;3.60;;
21326;SDS011;10822;51.532;6.770;2023-03-02T14:22:51;5.97;;;3.90;;
21326;SDS011;10822;51.532;6.770;2023-03-02T14:25:17;6.43;;;4.03;;
21326;SDS011;10822;51.532;6.770;2023-03-02T14:27:44;6.10;;;3.67;;
21326;SDS011;10822;51.532;6.770;2023-03-02T14:30:12;6.93;;;4.28;;
21326;SDS011;10822;51.532;6.770;2023-03-02T14:32:39;5.97;;;3.88;;
21326;SDS011;10822;51.532;6.770;2023-03-02T14:35:05;5.65;;;4.07;;
21326;SDS011;10822;51.532;6.770;2023-03-02T14:37:35;6.97;;;4.50;;
21326;SDS011;10822;51.532;6.770;2023-03-02T14:40:01;5.55;;;4.10;;
21326;SDS011;10822;51.532;6.770;2023-03-02T14:42:27;7.43;;;4.78;;
21326;SDS011;10822;51.532;6.770;2023-03-02T14:44:53;6.53;;;4.18;;
21326;SDS011;10822;51.532;6.770;2023-03-02T14:47:19;7.00;;;4.10;;
21326;SDS011;10822;51.532;6.770;2023-03-02T14:49:46;5.15;;;3.80;;
21326;SDS011;10822;51.532;6.770;2023-03-02T14:52:25;7.28;;;4.07;;
21326;SDS011;10822;51.532;6.770;2023-03-02T14:54:56;7.03;;;4.70;;
21326;SDS011;10822;51.532;6.770;2023-03-02T14:57:24;7.70;;;4.40;;
21326;SDS011;10822;51.532;6.770;2023-03-02T14:59:51;7.13;;;4.47;;
21326;SDS011;10822;51.532;6.770;2023-03-02T15:02:18;7.63;;;4.70;;
21326;SDS011;10822;51.532;6.770;2023-03-02T15:04:44;5.97;;;3.92;;
21326;SDS011;10822;51.532;6.770;2023-03-02T15:07:10;5.82;;;4.32;;
21326;SDS011;10822;51.532;6.770;2023-03-02T15:09:37;9.27;;;4.00;;
21326;SDS011;10822;51.532;6.770;2023-03-02T15:12:03;7.68;;;4.20;;
21326;SDS011;10822;51.532;6.770;2023-03-02T15:14:29;5.72;;;3.90;;
21326;SDS011;10822;51.532;6.770;2023-03-02T15:16:55;8.73;;;4.63;;
21326;SDS011;10822;51.532;6.770;2023-03-02T15:19:21;7.15;;;4.68;;
21326;SDS011;10822;51.532;6.770;2023-03-02T15:21:47;7.30;;;4.65;;
21326;SDS011;10822;51.532;6.770;2023-03-02T15:24:13;7.13;;;4.47;;
21326;SDS011;10822;51.532;6.770;2023-03-02T15:26:39;5.93;;;4.25;;
21326;SDS011;10822;51.532;6.770;2023-03-02T15:29:06;7.43;;;4.32;;
21326;SDS011;10822;51.532;6.770;2023-03-02T15:31:32;7.72;;;4.35;;
21326;SDS011;10822;51.532;6.770;2023-03-02T15:33:58;8.80;;;4.60;;
21326;SDS011;10822;51.532;6.770;2023-03-02T15:36:24;7.70;;;5.50;;
21326;SDS011;10822;51.532;6.770;2023-03-02T15:38:50;8.88;;;5.40;;